createdAt,value
2022-09-01T00:00:49.415Z,6.97
2022-09-01T00:01:53.279Z,6.53
2022-09-01T00:02:56.242Z,6.82
2022-09-01T00:04:03.284Z,7.38
2022-09-01T00:05:07.651Z,6.55
2022-09-01T00:06:11.820Z,6.70
2022-09-01T00:07:14.805Z,7.03
2022-09-01T00:08:18.708Z,6.68
2022-09-01T00:09:22.154Z,6.72
2022-09-01T00:10:24.032Z,7.25
2022-09-01T00:11:27.737Z,6.53
2022-09-01T00:12:30.614Z,6.88
2022-09-01T00:13:34.088Z,7.13
2022-09-01T00:14:41.531Z,6.63
2022-09-01T00:15:43.643Z,6.45
2022-09-01T00:16:45.416Z,6.45
2022-09-01T00:17:49.687Z,6.35
2022-09-01T00:18:53.740Z,6.20
2022-09-01T00:19:55.568Z,6.80
2022-09-01T00:20:59.385Z,6.40
2022-09-01T00:22:01.925Z,6.43
2022-09-01T00:23:03.698Z,6.32
2022-09-01T00:24:06.214Z,6.72
2022-09-01T00:25:08.936Z,8.40
2022-09-01T00:26:10.741Z,8.07
2022-09-01T00:27:12.929Z,8.07
2022-09-01T00:28:14.757Z,8.07
2022-09-01T00:29:16.553Z,8.25
2022-09-01T00:30:19.121Z,8.15
2022-09-01T00:31:21.902Z,8.43
2022-09-01T00:32:23.697Z,8.05
2022-09-01T00:33:25.426Z,9.15
2022-09-01T00:34:27.171Z,8.43
2022-09-01T00:35:28.995Z,7.93
2022-09-01T00:36:30.877Z,7.35
2022-09-01T00:37:32.622Z,7.60
2022-09-01T00:38:34.815Z,7.38
2022-09-01T00:39:36.628Z,7.35
2022-09-01T00:40:38.564Z,7.38
2022-09-01T00:41:45.045Z,7.15
2022-09-01T00:42:49.052Z,7.47
2022-09-01T00:43:53.918Z,7.18
2022-09-01T00:44:55.637Z,6.93
2022-09-01T00:45:57.965Z,7.90
2022-09-01T00:47:02.388Z,7.65
2022-09-01T00:48:05.985Z,7.28
2022-09-01T00:49:13.430Z,7.60
2022-09-01T00:50:17.796Z,8.38
2022-09-01T00:51:19.942Z,7.78
2022-09-01T00:52:35.409Z,7.82
2022-09-01T00:53:41.631Z,8.13
2022-09-01T00:54:50.720Z,8.13
2022-09-01T00:55:52.466Z,8.60
2022-09-01T00:56:57.771Z,8.98
2022-09-01T00:58:03.496Z,8.65
2022-09-01T00:59:07.842Z,8.60
2022-09-01T01:00:12.814Z,8.43
2022-09-01T01:01:14.779Z,8.60
2022-09-01T01:02:16.942Z,8.70
2022-09-01T01:03:19.001Z,9.05
2022-09-01T01:04:20.860Z,9.25
2022-09-01T01:05:33.375Z,8.98
2022-09-01T01:06:35.132Z,8.63
2022-09-01T01:07:39.239Z,8.25
2022-09-01T01:08:49.462Z,8.57
2022-09-01T01:09:51.896Z,8.40
2022-09-01T01:10:53.661Z,8.05
2022-09-01T01:11:59.559Z,8.23
2022-09-01T01:13:03.122Z,8.88
2022-09-01T01:14:15.641Z,8.13
2022-09-01T01:15:18.414Z,8.15
2022-09-01T01:16:21.162Z,8.05
2022-09-01T01:17:23.497Z,7.65
2022-09-01T01:18:25.511Z,9.05
2022-09-01T01:20:02.607Z,8.00
2022-09-01T01:21:32.720Z,8.32
2022-09-01T01:23:03.126Z,7.85
2022-09-01T01:24:18.571Z,7.72
2022-09-01T01:25:22.520Z,8.18
2022-09-01T01:26:24.252Z,8.02
2022-09-01T01:27:31.801Z,8.18
2022-09-01T01:28:37.283Z,8.30
2022-09-01T01:29:40.064Z,8.52
2022-09-01T01:30:48.991Z,7.38
2022-09-01T01:31:54.079Z,7.75
2022-09-01T01:32:57.966Z,8.20
2022-09-01T01:34:00.920Z,8.75
2022-09-01T01:35:06.018Z,8.75
2022-09-01T01:36:19.421Z,8.23
2022-09-01T01:37:25.190Z,7.90
2022-09-01T01:38:28.116Z,8.27
2022-09-01T01:39:29.856Z,8.57
2022-09-01T01:40:31.764Z,7.82
2022-09-01T01:41:35.630Z,8.05
2022-09-01T01:42:38.062Z,7.90
2022-09-01T01:43:40.506Z,8.90
2022-09-01T01:44:42.691Z,8.45
2022-09-01T01:45:44.505Z,7.72
2022-09-01T01:46:50.760Z,7.85
2022-09-01T01:47:53.809Z,8.05
2022-09-01T01:48:55.631Z,8.65
2022-09-01T01:49:57.748Z,7.43
2022-09-01T01:50:59.813Z,7.93
2022-09-01T01:52:01.780Z,7.85
2022-09-01T01:53:11.107Z,7.47
2022-09-01T01:54:15.940Z,7.32
2022-09-01T01:55:19.497Z,8.23
2022-09-01T01:56:26.551Z,7.45
2022-09-01T01:57:30.559Z,7.63
2022-09-01T01:58:35.009Z,8.10
2022-09-01T01:59:38.758Z,7.78
2022-09-01T02:00:42.996Z,7.82
2022-09-01T02:01:51.486Z,8.30
2022-09-01T02:02:54.468Z,8.30
2022-09-01T02:03:59.198Z,8.05
2022-09-01T02:05:02.201Z,8.63
2022-09-01T02:06:08.362Z,8.60
2022-09-01T02:07:13.034Z,9.18
2022-09-01T02:08:16.234Z,8.30
2022-09-01T02:09:21.371Z,8.40
2022-09-01T02:10:25.817Z,8.10
2022-09-01T02:11:28.282Z,8.73
2022-09-01T02:12:31.651Z,9.13
2022-09-01T02:13:34.242Z,9.02
2022-09-01T02:14:35.958Z,9.25
2022-09-01T02:15:44.356Z,9.60
2022-09-01T02:16:46.220Z,9.02
2022-09-01T02:17:49.002Z,9.20
2022-09-01T02:18:51.344Z,9.10
2022-09-01T02:19:57.605Z,9.25
2022-09-01T02:20:59.698Z,8.90
2022-09-01T02:22:01.434Z,8.88
2022-09-01T02:23:09.448Z,9.57
2022-09-01T02:24:12.074Z,9.65
2022-09-01T02:25:16.746Z,10.05
2022-09-01T02:26:19.279Z,10.07
2022-09-01T02:27:27.028Z,10.20
2022-09-01T02:28:32.180Z,10.48
2022-09-01T02:29:37.159Z,10.20
2022-09-01T02:31:53.148Z,9.65
2022-09-01T02:32:54.858Z,9.45
2022-09-01T02:33:56.632Z,9.93
2022-09-01T02:35:01.527Z,10.35
2022-09-01T02:36:08.551Z,9.68
2022-09-01T02:37:10.255Z,9.55
2022-09-01T02:38:14.127Z,9.80
2022-09-01T02:39:21.472Z,9.48
2022-09-01T02:40:23.331Z,9.20
2022-09-01T02:41:27.308Z,9.98
2022-09-01T02:42:30.327Z,9.85
2022-09-01T02:43:32.230Z,12.02
2022-09-01T02:44:36.278Z,12.57
2022-09-01T02:45:42.871Z,13.32
2022-09-01T02:46:46.360Z,15.30
2022-09-01T02:47:48.674Z,15.32
2022-09-01T02:48:51.627Z,14.77
2022-09-01T02:49:53.649Z,14.05
2022-09-01T02:50:57.428Z,14.10
2022-09-01T02:52:01.863Z,14.40
2022-09-01T02:53:06.931Z,14.38
2022-09-01T02:54:09.230Z,14.35
2022-09-01T02:55:11.931Z,15.07
2022-09-01T02:56:16.581Z,14.07
2022-09-01T02:57:18.423Z,14.95
2022-09-01T02:58:20.447Z,16.38
2022-09-01T02:59:28.994Z,15.65
2022-09-01T03:00:33.578Z,14.98
2022-09-01T03:01:35.557Z,15.95
2022-09-01T03:02:37.323Z,14.95
2022-09-01T03:03:39.090Z,14.20
2022-09-01T03:04:40.897Z,13.98
2022-09-01T03:05:43.229Z,13.15
2022-09-01T03:06:45.252Z,13.52
2022-09-01T03:07:47.071Z,13.20
2022-09-01T03:08:48.876Z,13.18
2022-09-01T03:09:50.583Z,12.65
2022-09-01T03:10:54.084Z,12.57
2022-09-01T03:11:56.193Z,12.02
2022-09-01T03:13:00.575Z,12.70
2022-09-01T03:14:03.295Z,12.43
2022-09-01T03:15:06.580Z,13.63
2022-09-01T03:16:11.292Z,12.68
2022-09-01T03:17:14.231Z,12.32
2022-09-01T03:18:16.368Z,13.07
2022-09-01T03:19:19.242Z,12.65
2022-09-01T03:20:21.869Z,12.20
2022-09-01T03:21:24.003Z,11.23
2022-09-01T03:22:27.169Z,12.00
2022-09-01T03:23:31.487Z,11.48
2022-09-01T03:24:33.163Z,11.27
2022-09-01T03:25:36.929Z,10.50
2022-09-01T03:26:40.602Z,10.77
2022-09-01T03:27:42.362Z,10.88
2022-09-01T03:28:44.088Z,10.32
2022-09-01T03:29:45.828Z,10.80
2022-09-01T03:30:51.127Z,10.30
2022-09-01T03:31:52.981Z,10.35
2022-09-01T03:32:54.833Z,9.77
2022-09-01T03:33:57.158Z,10.02
2022-09-01T03:34:59.916Z,10.55
2022-09-01T03:36:01.647Z,9.43
2022-09-01T03:37:07.614Z,10.13
2022-09-01T03:38:09.914Z,9.18
2022-09-01T03:39:16.511Z,9.77
2022-09-01T03:40:19.550Z,9.60
2022-09-01T03:41:25.255Z,9.48
2022-09-01T03:42:29.909Z,8.95
2022-09-01T03:43:35.616Z,9.10
2022-09-01T03:44:40.469Z,9.63
2022-09-01T03:45:43.059Z,9.85
2022-09-01T03:46:44.995Z,9.02
2022-09-01T03:47:47.285Z,10.07
2022-09-01T03:48:56.005Z,9.52
2022-09-01T03:50:00.043Z,9.93
2022-09-01T03:51:02.850Z,9.20
2022-09-01T03:52:05.979Z,9.55
2022-09-01T03:53:08.518Z,8.65
2022-09-01T03:54:11.380Z,8.95
2022-09-01T03:55:13.249Z,9.02
2022-09-01T03:56:15.392Z,10.43
2022-09-01T03:57:17.133Z,8.73
2022-09-01T03:58:19.777Z,8.77
2022-09-01T03:59:23.163Z,9.77
2022-09-01T04:00:29.998Z,9.70
2022-09-01T04:01:33.818Z,9.52
2022-09-01T04:02:35.755Z,9.10
2022-09-01T04:03:39.845Z,9.38
2022-09-01T04:04:41.819Z,9.82
2022-09-01T04:05:44.858Z,9.23
2022-09-01T04:06:47.175Z,9.63
2022-09-01T04:07:50.505Z,9.65
2022-09-01T04:08:57.436Z,9.98
2022-09-01T04:09:59.183Z,10.25
2022-09-01T04:11:11.977Z,10.73
2022-09-01T04:12:16.150Z,11.13
2022-09-01T04:13:35.535Z,11.23
2022-09-01T04:14:37.271Z,10.77
2022-09-01T04:15:39.129Z,10.57
2022-09-01T04:17:01.784Z,10.68
2022-09-01T04:18:10.317Z,9.50
2022-09-01T04:19:20.739Z,9.13
2022-09-01T04:20:23.645Z,9.88
2022-09-01T04:21:25.361Z,10.13
2022-09-01T04:22:30.251Z,9.70
2022-09-01T04:23:35.009Z,8.80
2022-09-01T04:24:36.703Z,9.30
2022-09-01T04:25:39.215Z,8.90
2022-09-01T04:26:42.457Z,8.85
2022-09-01T04:27:47.754Z,9.15
2022-09-01T04:28:51.048Z,9.25
2022-09-01T04:29:55.808Z,8.95
2022-09-01T04:30:59.684Z,8.77
2022-09-01T04:32:09.896Z,8.18
2022-09-01T04:33:12.001Z,8.47
2022-09-01T04:34:14.162Z,9.18
2022-09-01T04:35:17.269Z,8.40
2022-09-01T04:36:30.827Z,8.20
2022-09-01T04:37:35.652Z,8.38
2022-09-01T04:38:37.494Z,8.05
2022-09-01T04:39:40.413Z,7.95
2022-09-01T04:40:42.875Z,8.70
2022-09-01T04:41:50.496Z,8.98
2022-09-01T04:42:52.202Z,8.25
2022-09-01T04:43:57.118Z,8.70
2022-09-01T04:45:02.165Z,8.15
2022-09-01T04:46:14.572Z,8.23
2022-09-01T04:47:18.779Z,8.38
2022-09-01T04:48:22.362Z,8.20
2022-09-01T04:49:26.550Z,7.88
2022-09-01T04:50:30.912Z,9.05
2022-09-01T04:51:33.392Z,7.80
2022-09-01T04:52:35.961Z,7.95
2022-09-01T04:53:38.368Z,8.45
2022-09-01T04:54:40.709Z,8.82
2022-09-01T04:55:44.022Z,8.50
2022-09-01T04:56:50.947Z,8.23
2022-09-01T04:57:53.320Z,7.82
2022-09-01T04:58:56.021Z,8.18
2022-09-01T04:59:58.719Z,8.23
2022-09-01T05:01:03.818Z,9.30
2022-09-01T05:02:09.595Z,8.52
2022-09-01T05:03:11.932Z,8.23
2022-09-01T05:04:18.062Z,7.93
2022-09-01T05:05:23.899Z,8.32
2022-09-01T05:06:25.624Z,8.55
2022-09-01T05:07:27.882Z,8.18
2022-09-01T05:08:35.503Z,9.35
2022-09-01T05:09:38.553Z,7.85
2022-09-01T05:10:43.391Z,8.50
2022-09-01T05:11:45.642Z,7.93
2022-09-01T05:12:48.479Z,8.95
2022-09-01T05:13:51.257Z,7.30
2022-09-01T05:14:54.031Z,7.65
2022-09-01T05:16:06.203Z,7.47
2022-09-01T05:17:10.419Z,8.05
2022-09-01T05:18:23.441Z,7.65
2022-09-01T05:19:29.042Z,7.40
2022-09-01T05:20:32.160Z,7.50
2022-09-01T05:21:33.957Z,7.30
2022-09-01T05:22:35.806Z,6.93
2022-09-01T05:23:40.721Z,7.30
2022-09-01T05:24:42.635Z,7.20
2022-09-01T05:25:44.672Z,7.15
2022-09-01T05:26:50.979Z,6.68
2022-09-01T05:27:52.824Z,6.65
2022-09-01T05:29:04.340Z,7.50
2022-09-01T05:30:08.706Z,6.78
2022-09-01T05:31:10.767Z,6.82
2022-09-01T05:32:12.817Z,7.07
2022-09-01T05:33:21.137Z,7.05
2022-09-01T05:34:27.524Z,6.75
2022-09-01T05:35:32.715Z,7.30
2022-09-01T05:36:35.708Z,6.80
2022-09-01T05:37:42.108Z,6.57
2022-09-01T05:38:44.906Z,6.68
2022-09-01T05:39:46.685Z,7.25
2022-09-01T05:40:58.091Z,6.90
2022-09-01T05:42:01.722Z,6.28
2022-09-01T05:43:03.469Z,6.82
2022-09-01T05:44:08.191Z,6.65
2022-09-01T05:45:12.019Z,6.53
2022-09-01T05:46:20.802Z,7.18
2022-09-01T05:47:23.242Z,6.93
2022-09-01T05:48:25.436Z,6.75
2022-09-01T05:49:28.775Z,6.30
2022-09-01T05:50:31.581Z,6.72
2022-09-01T05:51:44.344Z,6.18
2022-09-01T05:52:48.068Z,6.20
2022-09-01T05:53:55.960Z,6.45
2022-09-01T05:55:00.257Z,6.88
2022-09-01T05:56:08.035Z,7.22
2022-09-01T05:57:32.717Z,6.00
2022-09-01T05:59:22.457Z,5.75
2022-09-01T05:59:54.253Z,6.85
2022-09-01T06:00:58.617Z,6.45
2022-09-01T06:02:01.158Z,5.97
2022-09-01T06:03:04.848Z,6.10
2022-09-01T06:04:08.425Z,6.35
2022-09-01T06:05:11.139Z,6.10
2022-09-01T06:06:12.878Z,6.00
2022-09-01T06:07:16.597Z,5.90
2022-09-01T06:08:25.340Z,5.50
2022-09-01T06:09:27.133Z,5.72
2022-09-01T06:10:29.809Z,5.93
2022-09-01T06:11:33.125Z,5.80
2022-09-01T06:12:34.907Z,5.63
2022-09-01T06:13:37.394Z,18.27
2022-09-01T06:14:39.109Z,7.18
2022-09-01T06:15:40.800Z,6.07
2022-09-01T06:16:43.770Z,5.97
2022-09-01T06:17:46.523Z,5.75
2022-09-01T06:18:48.260Z,5.82
2022-09-01T06:19:58.226Z,5.40
2022-09-01T06:21:00.055Z,5.35
2022-09-01T06:22:02.736Z,5.53
2022-09-01T06:23:04.430Z,5.50
2022-09-01T06:24:07.215Z,5.82
2022-09-01T06:25:09.660Z,5.30
2022-09-01T06:26:32.260Z,5.72
2022-09-01T06:27:38.866Z,5.35
2022-09-01T06:28:41.492Z,5.75
2022-09-01T06:29:43.243Z,5.00
2022-09-01T06:30:45.803Z,6.03
2022-09-01T06:31:52.051Z,5.03
2022-09-01T06:32:54.609Z,4.82
2022-09-01T06:33:56.778Z,5.00
2022-09-01T06:35:00.615Z,4.43
2022-09-01T06:36:04.149Z,5.10
2022-09-01T06:37:07.125Z,4.90
2022-09-01T06:38:10.093Z,5.22
2022-09-01T06:39:20.040Z,5.35
2022-09-01T06:40:22.453Z,5.03
2022-09-01T06:41:24.218Z,4.80
2022-09-01T06:42:26.321Z,5.10
2022-09-01T06:43:30.593Z,4.75
2022-09-01T06:44:32.823Z,5.20
2022-09-01T06:45:49.980Z,6.05
2022-09-01T06:46:52.541Z,5.03
2022-09-01T06:47:59.423Z,5.22
2022-09-01T06:49:02.121Z,4.68
2022-09-01T06:50:08.702Z,4.75
2022-09-01T06:51:15.784Z,4.63
2022-09-01T06:52:20.960Z,5.35
2022-09-01T06:53:38.954Z,4.82
2022-09-01T06:54:44.069Z,5.68
2022-09-01T06:55:49.343Z,4.93
2022-09-01T06:56:51.437Z,4.97
2022-09-01T06:58:13.989Z,5.22
2022-09-01T06:59:16.005Z,5.30
2022-09-01T07:00:19.162Z,5.03
2022-09-01T07:01:22.426Z,4.82
2022-09-01T07:03:52.989Z,4.50
2022-09-01T07:04:55.066Z,4.80
2022-09-01T07:06:00.896Z,4.95
2022-09-01T07:08:26.392Z,4.75
2022-09-01T07:14:15.321Z,4.78
2022-09-01T07:16:33.360Z,5.30
2022-09-01T07:17:42.370Z,4.88
2022-09-01T07:18:44.855Z,5.28
2022-09-01T07:20:23.215Z,5.00
2022-09-01T07:21:40.915Z,5.40
2022-09-01T07:24:10.486Z,5.15
2022-09-01T07:25:13.393Z,5.78
2022-09-01T07:26:26.886Z,5.20
2022-09-01T07:27:36.258Z,5.22
2022-09-01T07:28:43.195Z,5.70
2022-09-01T07:29:44.936Z,5.45
2022-09-01T07:30:49.224Z,5.35
2022-09-01T07:32:44.058Z,5.50
2022-09-01T07:39:57.369Z,4.65
2022-09-01T07:42:31.191Z,4.32
2022-09-01T07:42:56.830Z,5.45
2022-09-01T07:43:08.352Z,5.32
2022-09-01T07:44:13.128Z,4.80
2022-09-01T07:45:32.675Z,5.22
2022-09-01T07:46:37.967Z,5.50
2022-09-01T07:47:55.636Z,5.72
2022-09-01T07:51:43.530Z,5.35
2022-09-01T07:52:49.658Z,5.82
2022-09-01T07:53:51.456Z,6.45
2022-09-01T07:54:53.183Z,5.10
2022-09-01T07:55:56.558Z,5.53
2022-09-01T07:56:58.371Z,5.85
2022-09-01T07:58:00.049Z,5.40
2022-09-01T07:59:02.376Z,6.20
2022-09-01T08:00:06.654Z,5.28
2022-09-01T08:01:10.002Z,5.75
2022-09-01T08:02:11.761Z,5.35
2022-09-01T08:03:14.674Z,5.70
2022-09-01T08:04:18.657Z,5.10
2022-09-01T08:05:26.464Z,5.40
2022-09-01T08:06:37.991Z,5.30
2022-09-01T08:07:55.878Z,5.82
2022-09-01T08:08:59.852Z,4.95
2022-09-01T08:10:01.746Z,4.90
2022-09-01T08:11:04.839Z,4.85
2022-09-01T08:12:08.595Z,5.13
2022-09-01T08:13:15.223Z,5.60
2022-09-01T08:14:18.369Z,5.18
2022-09-01T08:16:51.882Z,5.03
2022-09-01T08:17:54.079Z,5.03
2022-09-01T08:18:56.610Z,4.85
2022-09-01T08:19:58.752Z,5.35
2022-09-01T08:21:00.614Z,5.88
2022-09-01T08:22:02.816Z,5.30
2022-09-01T08:23:05.471Z,6.10
2022-09-01T08:24:07.206Z,5.10
2022-09-01T08:25:10.052Z,5.80
2022-09-01T08:26:19.521Z,5.57
2022-09-01T08:27:21.260Z,5.70
2022-09-01T08:28:26.746Z,5.22
2022-09-01T08:29:28.711Z,5.53
2022-09-01T08:30:32.719Z,5.07
2022-09-01T08:31:35.871Z,5.25
2022-09-01T08:32:38.228Z,5.20
2022-09-01T08:33:42.019Z,5.72
2022-09-01T08:34:43.768Z,5.28
2022-09-01T08:35:49.155Z,5.50
2022-09-01T08:36:51.749Z,5.22
2022-09-01T08:37:54.264Z,5.00
2022-09-01T08:38:56.049Z,5.82
2022-09-01T08:39:57.879Z,5.30
2022-09-01T08:41:00.561Z,5.28
2022-09-01T08:42:18.945Z,5.80
2022-09-01T08:43:44.896Z,6.07
2022-09-01T08:44:49.433Z,5.95
2022-09-01T08:45:55.253Z,5.68
2022-09-01T08:47:07.758Z,6.07
2022-09-01T08:49:46.180Z,6.68
2022-09-01T08:50:55.609Z,6.32
2022-09-01T08:52:26.327Z,5.95
2022-09-01T08:53:41.014Z,6.03
2022-09-01T08:55:01.551Z,5.78
2022-09-01T08:56:04.592Z,6.20
2022-09-01T08:57:14.070Z,6.00
2022-09-01T08:58:18.236Z,5.90
2022-09-01T08:59:20.735Z,5.72
2022-09-01T09:00:25.263Z,5.88
2022-09-01T09:02:04.951Z,5.85
2022-09-01T09:03:40.420Z,5.68
2022-09-01T09:04:47.692Z,5.50
2022-09-01T09:06:07.972Z,5.10
2022-09-01T09:07:13.684Z,5.55
2022-09-01T09:08:46.021Z,5.30
2022-09-01T09:09:57.633Z,5.40
2022-09-01T09:11:04.700Z,5.20
2022-09-01T09:12:10.050Z,5.30
2022-09-01T09:13:34.122Z,5.20
2022-09-01T09:14:44.973Z,5.10
2022-09-01T09:16:08.513Z,5.90
2022-09-01T09:17:11.552Z,5.15
2022-09-01T09:18:38.856Z,4.93
2022-09-01T09:19:44.596Z,5.30
2022-09-01T09:20:46.350Z,5.35
2022-09-01T09:21:50.444Z,5.50
2022-09-01T09:22:53.837Z,5.13
2022-09-01T09:24:04.927Z,4.93
2022-09-01T09:25:17.452Z,5.68
2022-09-01T09:26:22.291Z,5.10
2022-09-01T09:27:33.713Z,5.00
2022-09-01T09:28:35.481Z,5.15
2022-09-01T09:29:37.160Z,4.93
2022-09-01T09:30:38.969Z,5.03
2022-09-01T09:31:46.279Z,5.25
2022-09-01T09:34:42.455Z,4.75
2022-09-01T09:35:46.698Z,4.90
2022-09-01T09:36:54.626Z,5.15
2022-09-01T09:38:21.781Z,4.65
2022-09-01T09:39:23.582Z,4.80
2022-09-01T09:40:26.865Z,4.93
2022-09-01T09:41:28.677Z,4.72
2022-09-01T09:42:34.907Z,4.82
2022-09-01T09:43:52.104Z,4.95
2022-09-01T09:44:57.683Z,4.93
2022-09-01T09:46:24.613Z,4.63
2022-09-01T09:47:45.451Z,4.72
2022-09-01T09:48:48.346Z,4.50
2022-09-01T09:50:12.803Z,4.78
2022-09-01T09:51:21.174Z,4.65
2022-09-01T09:52:23.279Z,4.63
2022-09-01T09:53:26.703Z,5.03
2022-09-01T09:54:29.653Z,4.55
2022-09-01T09:55:31.393Z,4.72
2022-09-01T09:56:36.099Z,4.68
2022-09-01T09:57:44.664Z,4.78
2022-09-01T09:58:49.365Z,4.53
2022-09-01T10:00:08.061Z,4.43
2022-09-01T10:01:17.784Z,4.18
2022-09-01T10:02:27.401Z,4.97
2022-09-01T10:03:46.015Z,4.30
2022-09-01T10:04:48.611Z,4.32
2022-09-01T10:05:55.600Z,4.50
2022-09-01T10:06:57.353Z,4.80
2022-09-01T10:07:59.275Z,4.63
2022-09-01T10:09:04.777Z,4.40
2022-09-01T10:10:48.689Z,4.28
2022-09-01T10:12:02.179Z,4.50
2022-09-01T10:13:08.246Z,4.47
2022-09-01T10:14:35.489Z,4.43
2022-09-01T10:15:39.101Z,4.60
2022-09-01T10:16:42.910Z,4.50
2022-09-01T10:17:49.425Z,5.30
2022-09-01T10:18:52.519Z,4.57
2022-09-01T10:20:05.337Z,4.50
2022-09-01T10:21:15.322Z,4.45
2022-09-01T10:22:17.061Z,4.70
2022-09-01T10:23:18.924Z,4.40
2022-09-01T10:24:31.334Z,4.22
2022-09-01T10:25:35.583Z,4.38
2022-09-01T10:26:41.047Z,4.40
2022-09-01T10:27:47.909Z,4.40
2022-09-01T10:29:01.031Z,4.97
2022-09-01T10:30:14.182Z,4.50
2022-09-01T10:31:20.879Z,4.68
2022-09-01T10:32:38.284Z,4.50
2022-09-01T10:33:48.728Z,4.32
2022-09-01T10:34:51.722Z,4.80
2022-09-01T10:35:54.556Z,4.50
2022-09-01T10:36:59.031Z,5.10
2022-09-01T10:38:07.821Z,4.47
2022-09-01T10:39:16.329Z,4.40
2022-09-01T10:40:30.991Z,4.18
2022-09-01T10:41:59.912Z,4.60
2022-09-01T10:43:49.093Z,4.70
2022-09-01T10:44:59.056Z,4.78
2022-09-01T10:46:05.702Z,4.50
2022-09-01T10:47:30.259Z,4.55
2022-09-01T10:48:46.293Z,4.78
2022-09-01T10:49:53.757Z,4.78
2022-09-01T10:51:19.335Z,4.63
2022-09-01T10:52:40.909Z,4.45
2022-09-01T10:53:47.658Z,4.30
2022-09-01T10:54:58.043Z,4.95
2022-09-01T10:56:19.255Z,4.95
2022-09-01T10:57:46.531Z,4.95
2022-09-01T11:00:36.823Z,4.80
2022-09-01T11:01:49.073Z,4.78
2022-09-01T11:04:37.904Z,5.20
2022-09-01T11:06:11.434Z,4.97
2022-09-01T11:07:39.008Z,4.80
2022-09-01T11:09:19.656Z,5.10
2022-09-01T11:10:34.569Z,4.90
2022-09-01T11:11:41.677Z,4.68
2022-09-01T11:13:03.620Z,5.13
2022-09-01T11:14:22.170Z,5.05
2022-09-01T11:15:40.302Z,5.05
2022-09-01T11:16:48.035Z,4.65
2022-09-01T11:17:51.132Z,5.32
2022-09-01T11:18:53.468Z,4.72
2022-09-01T11:20:10.131Z,4.90
2022-09-01T11:21:18.295Z,5.57
2022-09-01T11:22:32.865Z,5.03
2022-09-01T11:23:34.709Z,5.10
2022-09-01T11:24:41.541Z,5.07
2022-09-01T11:26:19.075Z,5.10
2022-09-01T11:27:33.046Z,5.38
2022-09-01T11:28:41.806Z,4.90
2022-09-01T11:30:02.961Z,5.18
2022-09-01T11:31:08.517Z,5.00
2022-09-01T11:32:11.448Z,5.20
2022-09-01T11:33:16.789Z,5.32
2022-09-01T11:34:20.614Z,5.00
2022-09-01T11:35:25.661Z,5.13
2022-09-01T11:36:47.370Z,5.65
2022-09-01T11:37:52.118Z,5.68
2022-09-01T11:39:04.716Z,5.05
2022-09-01T11:40:11.175Z,5.35
2022-09-01T11:41:45.135Z,5.82
2022-09-01T11:42:48.305Z,5.90
2022-09-01T11:43:53.707Z,5.30
2022-09-01T11:45:15.503Z,5.10
2022-09-01T11:46:29.308Z,5.47
2022-09-01T11:47:39.000Z,5.68
2022-09-01T11:48:52.066Z,5.30
2022-09-01T11:50:03.787Z,5.70
2022-09-01T11:51:05.889Z,5.45
2022-09-01T11:52:15.410Z,5.45
2022-09-01T11:53:23.112Z,5.60
2022-09-01T11:54:25.495Z,5.63
2022-09-01T11:55:36.399Z,5.85
2022-09-01T11:56:38.167Z,5.82
2022-09-01T11:57:41.390Z,5.10
2022-09-01T11:58:43.856Z,5.25
2022-09-01T11:59:45.953Z,5.15
2022-09-01T12:00:47.682Z,5.28
2022-09-01T12:01:49.913Z,5.00
2022-09-01T12:02:54.456Z,5.28
2022-09-01T12:03:59.034Z,4.53
2022-09-01T12:05:03.279Z,5.20
2022-09-01T12:06:11.018Z,5.10
2022-09-01T12:07:24.590Z,5.53
2022-09-01T12:08:30.704Z,5.20
2022-09-01T12:09:38.990Z,4.97
2022-09-01T12:10:43.524Z,4.97
2022-09-01T12:11:45.318Z,4.90
2022-09-01T12:12:47.771Z,5.30
2022-09-01T12:14:21.036Z,4.75
2022-09-01T12:15:24.665Z,5.25
2022-09-01T12:16:28.202Z,5.47
2022-09-01T12:17:30.318Z,5.20
2022-09-01T12:18:47.574Z,5.47
2022-09-01T12:19:49.447Z,5.10
2022-09-01T12:20:53.631Z,4.88
2022-09-01T12:22:16.985Z,5.07
2022-09-01T12:23:26.071Z,5.20
2022-09-01T12:24:29.162Z,5.20
2022-09-01T12:25:33.904Z,5.05
2022-09-01T12:26:35.907Z,4.82
2022-09-01T12:27:37.663Z,5.43
2022-09-01T12:28:41.691Z,4.85
2022-09-01T12:29:44.427Z,4.82
2022-09-01T12:30:46.315Z,4.47
2022-09-01T12:31:50.607Z,5.05
2022-09-01T12:33:22.930Z,5.07
2022-09-01T12:34:27.857Z,5.18
2022-09-01T12:35:29.599Z,5.00
2022-09-01T12:36:34.957Z,4.90
2022-09-01T12:37:36.952Z,4.80
2022-09-01T12:38:38.696Z,5.13
2022-09-01T12:39:46.094Z,5.00
2022-09-01T12:40:50.277Z,4.60
2022-09-01T12:42:27.601Z,4.72
2022-09-01T12:43:35.368Z,4.68
2022-09-01T12:44:40.203Z,4.90
2022-09-01T12:45:47.954Z,5.32
2022-09-01T12:46:49.674Z,4.97
2022-09-01T12:47:51.687Z,5.05
2022-09-01T12:48:53.426Z,4.53
2022-09-01T12:49:55.734Z,5.35
2022-09-01T12:51:26.520Z,4.80
2022-09-01T12:52:30.746Z,4.88
2022-09-01T12:53:36.573Z,4.78
2022-09-01T12:54:38.998Z,4.95
2022-09-01T12:55:48.091Z,5.00
2022-09-01T12:56:51.422Z,5.13
2022-09-01T12:57:56.141Z,4.90
2022-09-01T12:59:16.038Z,4.95
2022-09-01T13:00:24.197Z,4.57
2022-09-01T13:01:30.937Z,4.47
2022-09-01T13:02:37.004Z,4.72
2022-09-01T13:03:38.806Z,5.18
2022-09-01T13:04:42.143Z,4.80
2022-09-01T13:05:51.978Z,4.70
2022-09-01T13:06:56.595Z,5.07
2022-09-01T13:08:07.618Z,4.90
2022-09-01T13:09:10.233Z,4.95
2022-09-01T13:10:12.113Z,5.13
2022-09-01T13:11:18.443Z,4.93
2022-09-01T13:12:21.870Z,4.90
2022-09-01T13:13:25.716Z,5.13
2022-09-01T13:14:31.330Z,4.80
2022-09-01T13:15:34.512Z,5.10
2022-09-01T13:16:37.367Z,4.80
2022-09-01T13:17:39.478Z,4.85
2022-09-01T13:20:08.298Z,4.65
2022-09-01T13:21:10.314Z,4.72
2022-09-01T13:22:12.066Z,5.03
2022-09-01T13:23:14.342Z,4.93
2022-09-01T13:24:16.080Z,4.95
2022-09-01T13:25:20.447Z,4.95
2022-09-01T13:26:22.244Z,4.75
2022-09-01T13:27:24.166Z,4.47
2022-09-01T13:28:27.025Z,5.03
2022-09-01T13:29:28.796Z,4.45
2022-09-01T13:30:31.390Z,4.93
2022-09-01T13:31:34.430Z,4.80
2022-09-01T13:33:17.350Z,5.00
2022-09-01T13:34:21.907Z,5.00
2022-09-01T13:35:22.978Z,4.70
2022-09-01T13:37:48.302Z,5.80
2022-09-01T13:38:50.622Z,4.70
2022-09-01T13:39:55.567Z,5.38
2022-09-01T13:40:57.309Z,5.38
2022-09-01T13:41:59.078Z,5.28
2022-09-01T13:43:01.104Z,5.13
2022-09-01T13:44:03.016Z,5.30
2022-09-01T13:45:06.580Z,5.40
2022-09-01T13:46:09.661Z,5.55
2022-09-01T13:50:07.133Z,5.53
2022-09-01T13:51:15.983Z,5.05
2022-09-01T13:52:19.348Z,5.50
2022-09-01T13:53:22.389Z,5.82
2022-09-01T13:54:24.087Z,6.82
2022-09-01T13:55:31.992Z,5.50
2022-09-01T13:56:33.711Z,5.95
2022-09-01T13:57:35.683Z,5.95
2022-09-01T13:58:38.115Z,5.00
2022-09-01T13:59:41.936Z,5.65
2022-09-01T14:00:47.484Z,5.60
2022-09-01T14:01:49.622Z,5.47
2022-09-01T14:02:54.171Z,5.60
2022-09-01T14:04:00.186Z,5.72
2022-09-01T14:05:02.344Z,5.03
2022-09-01T14:06:04.048Z,5.32
2022-09-01T14:07:06.547Z,5.57
2022-09-01T14:08:10.290Z,4.97
2022-09-01T14:09:17.351Z,4.63
2022-09-01T14:10:20.740Z,5.10
2022-09-01T14:11:22.694Z,5.55
2022-09-01T14:12:24.726Z,5.72
2022-09-01T14:13:28.323Z,5.10
2022-09-01T14:15:53.624Z,5.25
2022-09-01T14:16:55.399Z,5.65
2022-09-01T14:18:00.536Z,5.75
2022-09-01T14:19:02.252Z,5.88
2022-09-01T14:20:11.675Z,5.93
2022-09-01T14:21:15.947Z,5.95
2022-09-01T14:22:17.779Z,5.82
2022-09-01T14:23:20.401Z,5.38
2022-09-01T14:24:22.338Z,5.75
2022-09-01T14:25:24.820Z,6.35
2022-09-01T14:26:27.193Z,5.75
2022-09-01T14:27:29.881Z,6.18
2022-09-01T14:28:31.640Z,6.07
2022-09-01T14:29:33.511Z,6.38
2022-09-01T14:30:35.391Z,6.45
2022-09-01T14:31:37.940Z,5.80
2022-09-01T14:32:40.373Z,6.55
2022-09-01T14:33:43.732Z,6.57
2022-09-01T14:34:45.416Z,6.35
2022-09-01T14:35:48.448Z,6.43
2022-09-01T14:36:52.269Z,6.60
2022-09-01T14:37:54.799Z,6.32
2022-09-01T14:38:56.634Z,7.00
2022-09-01T14:39:58.523Z,6.38
2022-09-01T14:41:02.255Z,7.13
2022-09-01T14:42:06.925Z,6.75
2022-09-01T14:43:14.494Z,7.13
2022-09-01T14:44:16.430Z,6.72
2022-09-01T14:45:21.163Z,6.43
2022-09-01T14:46:23.736Z,6.15
2022-09-01T14:47:25.785Z,6.47
2022-09-01T14:48:27.520Z,6.03
2022-09-01T14:49:33.084Z,7.20
2022-09-01T14:50:41.082Z,6.72
2022-09-01T14:53:04.594Z,6.57
2022-09-01T14:54:06.289Z,6.72
2022-09-01T14:55:08.203Z,5.85
2022-09-01T14:56:09.964Z,6.10
2022-09-01T14:58:33.595Z,5.90
2022-09-01T14:59:36.437Z,5.88
2022-09-01T15:00:42.189Z,5.85
2022-09-01T15:01:44.379Z,5.43
2022-09-01T15:02:46.280Z,6.60
2022-09-01T15:03:48.236Z,5.93
2022-09-01T15:04:49.970Z,6.95
2022-09-01T15:05:53.161Z,6.07
2022-09-01T15:06:55.211Z,6.72
2022-09-01T15:07:57.025Z,5.95
2022-09-01T15:08:59.976Z,5.80
2022-09-01T15:10:02.005Z,6.57
2022-09-01T15:11:07.804Z,6.43
2022-09-01T15:12:10.009Z,6.63
2022-09-01T15:13:13.080Z,6.50
2022-09-01T15:14:14.943Z,6.78
2022-09-01T15:15:17.694Z,6.00
2022-09-01T15:16:22.821Z,6.35